Time;durP1;ratioP1;P1;durP2;ratioP2;P2;SDS_P1;SDS_P2;PMS_P1;PMS_P2;Temp;Humidity;BMP_temperature;BMP_pressure;BME280_temperature;BME280_humidity;BME280_pressure;Samples;Min_cycle;Max_cycle;Signal;HPM_P1;HPM_P2
2023/05/13 00:01:43;;;;;;;9.10;5.20;;;;;;;24.01;27.93;100903.69;107918;1255;74579;-65
2023/05/13 00:04:10;;;;;;;8.00;5.20;;;;;;;23.90;28.20;100898.47;107991;1254;61168;-66
2023/05/13 00:06:36;;;;;;;7.70;5.10;;;;;;;23.69;28.54;100900.34;107985;1254;61358;-67
2023/05/13 00:09:04;;;;;;;12.60;5.90;;;;;;;23.64;29.01;100905.02;108036;1254;73762;-66
2023/05/13 00:11:31;;;;;;;7.20;5.20;;;;;;;23.83;28.64;100901.02;108049;1254;71303;-66
2023/05/13 00:13:57;;;;;;;7.80;5.00;;;;;;;23.63;28.79;100901.29;107939;1254;74968;-65
2023/05/13 00:16:26;;;;;;;11.90;5.30;;;;;;;23.59;28.81;100902.52;107936;1254;62133;-66
2023/05/13 00:18:55;;;;;;;8.80;5.20;;;;;;;23.25;29.20;100906.08;108036;1254;60286;-65
2023/05/13 00:21:22;;;;;;;10.30;5.40;;;;;;;23.22;29.27;100908.85;107982;1254;75780;-66
2023/05/13 00:23:49;;;;;;;8.20;5.40;;;;;;;23.38;29.08;100913.55;108057;1254;71373;-66
2023/05/13 00:26:16;;;;;;;7.40;4.60;;;;;;;23.38;28.96;100912.61;108071;1255;74615;-67
2023/05/13 00:28:43;;;;;;;10.80;5.10;;;;;;;23.25;29.06;100914.17;108065;1254;63344;-66
2023/05/13 00:31:10;;;;;;;11.10;4.60;;;;;;;23.36;28.96;100914.77;107967;1253;60688;-65
2023/05/13 00:33:37;;;;;;;6.90;4.90;;;;;;;23.23;29.14;100916.50;107826;1253;75993;-67
2023/05/13 00:36:06;;;;;;;7.80;5.10;;;;;;;23.07;29.38;100915.34;108040;1253;72908;-67
2023/05/13 00:38:33;;;;;;;7.80;5.80;;;;;;;22.93;29.75;100918.21;108133;1255;73148;-66
2023/05/13 00:41:01;;;;;;;7.80;5.20;;;;;;;22.79;30.12;100917.48;108033;1253;62809;-66
2023/05/13 00:43:29;;;;;;;9.80;5.40;;;;;;;22.91;30.00;100920.16;108094;1253;62463;-67
2023/05/13 00:45:56;;;;;;;9.10;5.30;;;;;;;22.48;30.51;100919.27;108177;1253;75001;-66
2023/05/13 00:48:24;;;;;;;15.80;5.80;;;;;;;22.17;31.12;100920.28;108077;1253;71666;-66
2023/05/13 00:50:50;;;;;;;9.10;5.30;;;;;;;22.03;31.13;100922.20;108062;1253;74979;-65
2023/05/13 00:53:17;;;;;;;8.60;5.60;;;;;;;21.80;31.54;100920.77;108128;1253;61284;-67
2023/05/13 00:55:44;;;;;;;9.60;5.00;;;;;;;21.85;31.44;100920.40;108094;1253;62705;-67
2023/05/13 00:58:12;;;;;;;8.70;5.40;;;;;;;21.94;31.45;100921.90;108122;1253;73466;-65
2023/05/13 01:01:03;;;;;;;9.30;5.30;;;;;;;21.96;31.37;100917.67;108047;1253;70335;-69
2023/05/13 01:03:55;;;;;;;11.10;5.10;;;;;;;22.10;31.12;100916.84;108034;1253;75031;-67
2023/05/13 01:06:31;;;;;;;10.80;5.60;;;;;;;21.81;31.46;100912.99;108004;1256;63425;-65
2023/05/13 01:09:14;;;;;;;15.20;5.70;;;;;;;21.70;31.85;100914.16;108009;1253;61079;-67
2023/05/13 01:11:41;;;;;;;14.30;5.70;;;;;;;22.19;30.99;100910.50;108044;1253;76219;-64
2023/05/13 01:14:11;;;;;;;10.10;5.10;;;;;;;22.07;31.23;100912.58;107755;1253;70979;-66
2023/05/13 01:17:04;;;;;;;8.90;5.30;;;;;;;22.20;30.91;100913.96;107932;1258;73303;-66
2023/05/13 01:19:45;;;;;;;14.50;6.00;;;;;;;22.33;30.69;100913.02;107868;1253;63219;-67
2023/05/13 01:22:13;;;;;;;12.50;5.30;;;;;;;22.06;30.89;100913.70;108022;1253;61943;-66
2023/05/13 01:24:40;;;;;;;7.40;5.00;;;;;;;21.89;31.18;100912.06;108059;1253;74051;-66
2023/05/13 01:27:07;;;;;;;10.50;5.30;;;;;;;22.03;30.93;100918.27;108093;1254;70678;-64
2023/05/13 01:29:34;;;;;;;6.40;4.20;;;;;;;22.33;30.55;100913.92;107816;1254;74367;-65
2023/05/13 01:32:02;;;;;;;7.20;4.70;;;;;;;22.79;29.75;100918.20;107814;1254;63238;-66
2023/05/13 01:34:28;;;;;;;9.30;5.30;;;;;;;22.83;29.58;100915.77;107827;1254;61275;-65
2023/05/13 01:36:55;;;;;;;10.80;5.80;;;;;;;22.67;29.67;100913.73;107689;1262;76447;-65
2023/05/13 01:39:22;;;;;;;10.00;5.40;;;;;;;22.31;30.27;100909.81;107713;1254;70482;-65
2023/05/13 01:41:50;;;;;;;9.60;5.60;;;;;;;21.94;30.75;100910.34;107863;1256;72307;-66
2023/05/13 01:44:17;;;;;;;9.60;5.10;;;;;;;21.97;30.67;100906.14;107925;1254;63251;-66
2023/05/13 01:46:46;;;;;;;10.00;5.40;;;;;;;22.27;30.35;100909.67;107882;1254;62442;-65
2023/05/13 01:49:13;;;;;;;7.90;5.00;;;;;;;22.06;30.55;100910.52;108005;1254;76083;-64
2023/05/13 01:51:40;;;;;;;9.20;5.20;;;;;;;22.11;30.47;100909.27;107938;1254;71702;-64
2023/05/13 01:54:07;;;;;;;10.20;5.10;;;;;;;22.13;30.46;100907.70;107967;1259;73494;-64
2023/05/13 01:56:37;;;;;;;10.90;5.70;;;;;;;22.36;30.01;100907.28;108000;1256;60808;-65
2023/05/13 01:59:04;;;;;;;8.20;5.40;;;;;;;22.28;30.23;100909.96;107994;1254;62404;-66
2023/05/13 02:01:31;;;;;;;8.50;4.40;;;;;;;22.33;29.89;100904.08;108002;1255;75386;-64
2023/05/13 02:03:58;;;;;;;6.60;4.80;;;;;;;21.81;30.63;100906.57;108021;1253;70957;-66
2023/05/13 02:06:26;;;;;;;8.30;4.80;;;;;;;21.89;30.56;100906.21;108129;1253;73010;-64
2023/05/13 02:08:53;;;;;;;11.00;5.10;;;;;;;21.81;30.62;100910.20;108042;1253;61803;-65
2023/05/13 02:11:21;;;;;;;8.30;4.80;;;;;;;21.84;30.53;100909.27;108106;1253;61964;-65
2023/05/13 02:13:48;;;;;;;10.40;5.00;;;;;;;21.90;30.61;100911.31;108068;1253;75679;-65
2023/05/13 02:16:16;;;;;;;9.30;5.50;;;;;;;22.30;30.02;100915.73;108007;1253;72372;-65
2023/05/13 02:18:43;;;;;;;10.00;5.80;;;;;;;22.47;29.67;100915.95;108043;1256;73241;-67
2023/05/13 02:21:10;;;;;;;8.60;5.00;;;;;;;22.53;29.65;100917.12;107913;1257;60324;-65
2023/05/13 02:23:37;;;;;;;9.30;4.90;;;;;;;22.53;29.71;100913.72;108108;1253;62688;-66
2023/05/13 02:26:04;;;;;;;9.00;4.70;;;;;;;22.62;29.65;100917.52;107979;1254;73687;-66
2023/05/13 02:28:31;;;;;;;7.80;5.40;;;;;;;22.09;30.19;100920.13;107944;1254;72819;-66
2023/05/13 02:30:57;;;;;;;9.80;5.30;;;;;;;21.91;30.51;100922.48;107792;1256;74854;-67
2023/05/13 02:33:25;;;;;;;10.10;5.50;;;;;;;22.03;30.38;100926.11;107969;1256;63318;-66
2023/05/13 02:35:52;;;;;;;8.80;5.70;;;;;;;22.13;30.24;100926.98;108012;1254;62195;-66
2023/05/13 02:40:30;;;;;;;11.90;5.70;;;;;;;17.40;37.47;100941.51;104850;1294;600171;-66
2023/05/13 02:42:57;;;;;;;8.80;5.80;;;;;;;19.20;34.54;100940.65;107329;1267;62214;-66
2023/05/13 02:45:28;;;;;;;11.40;5.20;;;;;;;19.62;34.10;100941.31;107344;1266;59387;-67
2023/05/13 02:47:56;;;;;;;12.90;5.40;;;;;;;19.88;33.64;100940.73;107273;1267;73237;-64
2023/05/13 02:50:23;;;;;;;8.50;5.10;;;;;;;20.00;33.68;100939.48;107343;1267;71602;-63
2023/05/13 02:52:50;;;;;;;9.00;5.50;;;;;;;20.24;33.32;100946.31;107119;1263;308363;-66
2023/05/13 02:55:17;;;;;;;7.00;5.10;;;;;;;20.32;33.30;100947.03;107430;1264;61653;-66
2023/05/13 02:57:44;;;;;;;8.30;5.10;;;;;;;20.49;33.13;100950.56;107397;1264;60310;-64
2023/05/13 03:00:12;;;;;;;9.10;4.70;;;;;;;20.67;32.92;100951.58;107985;1257;72513;-66
2023/05/13 03:02:38;;;;;;;8.50;5.20;;;;;;;20.64;33.02;100950.48;107742;1257;70612;-65
2023/05/13 03:05:06;;;;;;;11.40;5.50;;;;;;;20.58;33.17;100950.04;107730;1257;73669;-66
2023/05/13 03:07:34;;;;;;;9.20;5.60;;;;;;;20.81;33.03;100950.98;107678;1263;62133;-68
2023/05/13 03:10:00;;;;;;;10.20;5.20;;;;;;;20.86;33.24;100953.52;107819;1257;61344;-66
2023/05/13 03:12:28;;;;;;;11.70;6.20;;;;;;;21.05;33.14;100956.52;107864;1257;74277;-67
2023/05/13 03:14:55;;;;;;;6.50;4.90;;;;;;;21.32;33.01;100957.75;107778;1257;71182;-65
2023/05/13 03:17:22;;;;;;;8.50;5.10;;;;;;;21.60;32.62;100959.72;107871;1257;72785;-66
2023/05/13 03:19:49;;;;;;;10.80;5.30;;;;;;;20.51;34.06;100964.73;107829;1257;62389;-66
2023/05/13 03:22:15;;;;;;;8.80;4.90;;;;;;;20.46;34.28;100964.00;107918;1257;60085;-66
2023/05/13 03:24:43;;;;;;;8.10;4.90;;;;;;;20.74;34.09;100965.20;107883;1257;73251;-67
2023/05/13 03:27:10;;;;;;;8.30;5.30;;;;;;;21.18;33.79;100966.52;107896;1257;71455;-67
2023/05/13 03:29:37;;;;;;;6.80;4.70;;;;;;;22.07;32.88;100962.48;107834;1256;71775;-66
2023/05/13 03:32:05;;;;;;;6.50;5.10;;;;;;;24.02;30.50;100962.73;107893;1256;62054;-65
2023/05/13 03:34:32;;;;;;;10.50;5.10;;;;;;;25.19;28.84;100961.20;107813;1257;61083;-66
2023/05/13 03:36:59;;;;;;;12.30;5.00;;;;;;;25.78;28.03;100961.67;107927;1257;73248;-68
2023/05/13 03:39:27;;;;;;;8.50;4.80;;;;;;;26.75;26.84;100959.26;107972;1256;71342;-67
2023/05/13 03:41:54;;;;;;;9.40;4.60;;;;;;;27.41;26.12;100958.58;107808;1257;71435;-66
2023/05/13 03:44:21;;;;;;;8.80;3.90;;;;;;;28.00;25.26;100956.17;107726;1257;60654;-67
2023/05/13 03:46:48;;;;;;;12.20;4.80;;;;;;;28.53;24.77;100961.40;107915;1257;61518;-65
2023/05/13 03:49:17;;;;;;;9.40;4.40;;;;;;;29.09;24.23;100964.25;107903;1257;73600;-64
2023/05/13 03:51:45;;;;;;;10.30;4.60;;;;;;;29.44;23.77;100968.49;107854;1256;71125;-64
2023/05/13 03:54:11;;;;;;;8.20;4.20;;;;;;;29.89;23.20;100966.71;107965;1258;73503;-65
2023/05/13 03:56:39;;;;;;;7.30;4.30;;;;;;;30.12;22.98;100970.84;107958;1257;62075;-63
2023/05/13 03:59:06;;;;;;;8.50;4.70;;;;;;;30.49;22.68;100972.79;108068;1256;61452;-63
2023/05/13 04:01:35;;;;;;;11.70;4.60;;;;;;;30.75;22.22;100973.38;107906;1260;73538;-67
2023/05/13 04:04:02;;;;;;;11.30;4.50;;;;;;;31.10;21.85;100972.00;107807;1257;70831;-63
2023/05/13 04:06:30;;;;;;;8.90;5.20;;;;;;;31.12;21.60;100974.27;107992;1256;72016;-65
2023/05/13 04:08:57;;;;;;;8.60;5.40;;;;;;;31.14;21.54;100976.21;107859;1257;61057;-65
2023/05/13 04:11:24;;;;;;;10.50;6.50;;;;;;;31.62;20.99;100979.64;107992;1256;60301;-64
2023/05/13 04:13:51;;;;;;;11.40;5.80;;;;;;;31.67;20.89;100979.73;107968;1257;73935;-66
2023/05/13 04:16:18;;;;;;;13.30;5.90;;;;;;;32.58;20.15;100977.81;107846;1257;71427;-67
2023/05/13 04:18:44;;;;;;;12.30;5.60;;;;;;;33.02;19.63;100976.64;108106;1257;70979;-65
2023/05/13 04:21:11;;;;;;;11.60;5.70;;;;;;;33.35;19.34;100975.67;107860;1257;61448;-68
2023/05/13 04:23:39;;;;;;;11.20;4.60;;;;;;;33.66;18.69;100974.30;107938;1256;61607;-68
2023/05/13 04:26:06;;;;;;;8.40;4.00;;;;;;;34.01;18.32;100978.45;107904;1257;74082;-68
2023/05/13 04:28:33;;;;;;;9.00;3.90;;;;;;;33.92;18.16;100982.23;107787;1258;71145;-67
2023/05/13 04:31:01;;;;;;;11.60;4.20;;;;;;;33.60;18.27;100983.34;108230;1254;73278;-67
2023/05/13 04:33:29;;;;;;;12.60;4.70;;;;;;;33.61;18.05;100985.20;108104;1254;61219;-67
2023/05/13 04:35:55;;;;;;;8.90;4.50;;;;;;;33.58;17.76;100984.92;108218;1254;59467;-66
2023/05/13 04:38:22;;;;;;;6.80;3.80;;;;;;;33.93;17.87;100984.56;108130;1254;73257;-67
2023/05/13 04:40:49;;;;;;;14.10;4.50;;;;;;;34.32;17.76;100983.65;108234;1252;70171;-66
2023/05/13 04:43:21;;;;;;;9.40;4.50;;;;;;;34.74;17.37;100983.05;108173;1252;65031;-66
2023/05/13 04:45:55;;;;;;;9.80;4.40;;;;;;;34.57;17.66;100984.37;108208;1253;59445;-67
2023/05/13 04:48:22;;;;;;;10.10;6.00;;;;;;;34.80;17.44;100985.86;108223;1254;59749;-68
2023/05/13 04:50:49;;;;;;;11.50;6.60;;;;;;;35.20;16.65;100986.79;108168;1254;64367;-66
2023/05/13 04:53:17;;;;;;;17.60;7.90;;;;;;;35.25;16.33;100985.99;108150;1254;62810;-67
2023/05/13 04:55:47;;;;;;;17.10;9.40;;;;;;;35.29;16.42;100981.42;108063;1254;65070;-68
2023/05/13 04:58:14;;;;;;;14.40;8.80;;;;;;;35.88;16.09;100984.81;108053;1254;59604;-65
2023/05/13 05:00:42;;;;;;;13.10;9.00;;;;;;;36.01;15.91;100982.42;108093;1254;59586;-68
2023/05/13 05:03:10;;;;;;;15.10;8.90;;;;;;;35.86;16.00;100985.77;108145;1253;66322;-65
2023/05/13 05:05:37;;;;;;;10.00;8.10;;;;;;;35.98;16.04;100982.08;108074;1253;63159;-66
2023/05/13 05:08:04;;;;;;;15.30;8.60;;;;;;;36.03;16.03;100981.93;108094;1254;64928;-65
2023/05/13 05:10:31;;;;;;;13.30;7.70;;;;;;;35.56;16.02;100986.80;108063;1253;59723;-68
2023/05/13 05:13:00;;;;;;;11.70;5.40;;;;;;;35.75;15.93;100989.57;108167;1253;59528;-67
2023/05/13 05:15:28;;;;;;;10.10;6.30;;;;;;;36.59;15.08;100983.05;108200;1257;65140;-67
2023/05/13 05:17:57;;;;;;;14.40;6.10;;;;;;;36.68;15.20;100981.56;108285;1254;62886;-68
2023/05/13 05:20:25;;;;;;;12.90;6.80;;;;;;;36.75;15.34;100981.77;108203;1253;63733;-67
2023/05/13 05:22:55;;;;;;;20.50;5.60;;;;;;;37.24;15.11;100983.94;108096;1253;59484;-67
2023/05/13 05:25:25;;;;;;;21.00;7.00;;;;;;;37.32;14.61;100984.16;108200;1253;58318;-68
2023/05/13 05:27:51;;;;;;;33.70;7.10;;;;;;;36.79;14.63;100986.09;108229;1254;65074;-67
2023/05/13 05:30:18;;;;;;;23.90;7.20;;;;;;;36.50;15.02;100988.12;108223;1254;62778;-67
2023/05/13 05:32:50;;;;;;;31.80;7.80;;;;;;;36.55;15.03;100986.94;108155;1254;64745;-68
2023/05/13 05:35:18;;;;;;;41.10;8.10;;;;;;;36.98;14.80;100989.15;108263;1253;59595;-68
2023/05/13 05:37:45;;;;;;;34.70;8.60;;;;;;;37.17;14.17;100992.32;108125;1253;59724;-68
2023/05/13 05:40:12;;;;;;;39.70;9.40;;;;;;;36.77;14.58;100991.15;108131;1253;65260;-67
2023/05/13 05:42:39;;;;;;;34.40;7.40;;;;;;;36.87;14.73;100993.88;108203;1254;62503;-68
2023/05/13 05:45:07;;;;;;;20.00;5.10;;;;;;;36.96;14.54;100996.81;108113;1253;65310;-66
2023/05/13 05:47:35;;;;;;;24.00;6.30;;;;;;;37.13;14.33;100997.77;108264;1253;61047;-69
2023/05/13 05:50:02;;;;;;;26.70;6.40;;;;;;;37.19;14.11;100999.30;108105;1254;59439;-68
2023/05/13 05:52:29;;;;;;;10.90;3.20;;;;;;;37.30;14.07;100997.09;108275;1253;65369;-69
2023/05/13 05:54:57;;;;;;;16.50;3.60;;;;;;;36.92;14.36;100997.80;108215;1254;62557;-68
2023/05/13 05:57:24;;;;;;;13.20;3.50;;;;;;;37.15;14.37;101001.09;108124;1253;64882;-68
2023/05/13 05:59:51;;;;;;;4.90;2.60;;;;;;;37.40;14.29;100996.45;108229;1254;59407;-70
2023/05/13 06:02:18;;;;;;;15.70;3.00;;;;;;;37.47;14.13;100995.65;108189;1253;59621;-69
2023/05/13 06:04:45;;;;;;;11.30;2.50;;;;;;;37.45;14.14;100996.36;108160;1253;65477;-67
2023/05/13 06:07:12;;;;;;;12.00;1.90;;;;;;;37.53;13.85;100998.34;108207;1253;62678;-69
2023/05/13 06:09:39;;;;;;;6.30;2.10;;;;;;;37.67;13.82;100998.27;108134;1254;63994;-69
2023/05/13 06:12:07;;;;;;;7.80;2.10;;;;;;;37.87;13.90;101003.41;108091;1254;59602;-67
2023/05/13 06:14:35;;;;;;;5.80;2.20;;;;;;;38.22;13.59;101002.91;108145;1254;59528;-68
2023/05/13 06:17:02;;;;;;;9.10;2.00;;;;;;;38.26;13.62;101000.80;108194;1253;65194;-69
2023/05/13 06:19:29;;;;;;;3.90;1.60;;;;;;;38.32;13.45;101002.08;108240;1253;62391;-68
2023/05/13 06:21:56;;;;;;;3.90;1.70;;;;;;;37.97;13.46;101003.59;108274;1253;63913;-69
2023/05/13 06:24:23;;;;;;;3.30;1.60;;;;;;;38.77;13.13;101002.22;108163;1253;59499;-68
2023/05/13 06:26:50;;;;;;;5.40;1.70;;;;;;;38.81;12.99;101000.20;108276;1252;59513;-67
2023/05/13 06:29:16;;;;;;;10.70;2.10;;;;;;;38.65;12.88;101002.42;108182;1253;65117;-68
2023/05/13 06:31:43;;;;;;;5.80;1.80;;;;;;;38.53;13.04;101004.07;108307;1253;62753;-67
2023/05/13 06:34:15;;;;;;;8.40;2.00;;;;;;;38.60;12.91;101002.25;108229;1254;64054;-68
2023/05/13 06:36:42;;;;;;;5.30;1.60;;;;;;;38.29;13.04;101005.39;108223;1253;59611;-68
2023/05/13 06:39:10;;;;;;;7.00;1.70;;;;;;;38.30;13.20;101002.34;108377;1253;58962;-69
2023/05/13 06:41:38;;;;;;;5.20;2.10;;;;;;;38.41;13.02;101006.09;108334;1253;65178;-68
2023/05/13 06:44:08;;;;;;;6.90;2.10;;;;;;;38.28;12.86;101008.02;108366;1253;62343;-66
2023/05/13 06:46:38;;;;;;;2.80;1.40;;;;;;;37.90;13.16;101006.11;108301;1253;65127;-68
2023/05/13 06:49:05;;;;;;;6.60;2.10;;;;;;;37.44;13.35;101000.80;108199;1252;60360;-68
2023/05/13 06:51:33;;;;;;;5.90;1.70;;;;;;;37.59;13.37;101000.55;108228;1252;60319;-68
2023/05/13 06:54:00;;;;;;;4.00;1.40;;;;;;;37.98;13.18;101003.61;108311;1254;65982;-69
2023/05/13 06:56:28;;;;;;;2.90;1.60;;;;;;;38.13;12.91;101004.18;108297;1254;62774;-69
2023/05/13 06:58:55;;;;;;;7.00;1.70;;;;;;;38.61;12.68;100999.83;108348;1253;63970;-69
2023/05/13 07:01:21;;;;;;;4.60;2.00;;;;;;;38.65;12.69;100999.98;108344;1253;60437;-68
2023/05/13 07:03:48;;;;;;;7.60;2.20;;;;;;;39.17;12.62;100995.70;108186;1254;60422;-67
2023/05/13 07:06:15;;;;;;;4.30;1.50;;;;;;;39.33;12.38;100991.73;108343;1252;66276;-67
2023/05/13 07:08:42;;;;;;;4.00;1.90;;;;;;;39.50;12.30;100992.13;108237;1256;62697;-68
2023/05/13 07:11:08;;;;;;;6.50;1.50;;;;;;;39.97;12.23;100990.75;108294;1253;65082;-68
2023/05/13 07:13:35;;;;;;;3.90;1.90;;;;;;;40.10;11.77;100992.85;108238;1252;60936;-67
2023/05/13 07:16:02;;;;;;;4.50;2.00;;;;;;;39.99;11.60;100991.26;108253;1254;60434;-69
2023/05/13 07:18:29;;;;;;;3.10;1.60;;;;;;;39.83;11.84;100987.35;108275;1253;65876;-67
2023/05/13 07:20:55;;;;;;;3.20;1.80;;;;;;;39.62;11.99;100988.15;108389;1253;61499;-70
2023/05/13 07:23:22;;;;;;;3.30;1.50;;;;;;;39.55;12.27;100988.20;108298;1253;63877;-67
2023/05/13 07:25:50;;;;;;;3.30;1.70;;;;;;;39.92;11.97;100988.56;108262;1253;58784;-68
2023/05/13 07:28:18;;;;;;;7.80;1.70;;;;;;;40.34;11.59;100992.00;108186;1253;60288;-68
2023/05/13 07:30:45;;;;;;;3.70;1.70;;;;;;;40.33;11.31;100988.45;108273;1253;66090;-67
2023/05/13 07:33:12;;;;;;;2.30;1.80;;;;;;;39.88;11.14;100990.97;108188;1253;62716;-68
2023/05/13 07:35:39;;;;;;;6.00;1.60;;;;;;;39.67;11.27;100989.84;108140;1252;63844;-68
2023/05/13 07:38:06;;;;;;;3.30;1.60;;;;;;;39.60;11.58;100993.27;108038;1254;59123;-69
2023/05/13 07:40:33;;;;;;;2.60;1.40;;;;;;;39.80;11.50;100988.61;108177;1253;60332;-68
2023/05/13 07:42:59;;;;;;;6.20;1.40;;;;;;;40.09;11.09;100991.33;108160;1253;66452;-69
2023/05/13 07:45:26;;;;;;;4.50;1.20;;;;;;;39.86;11.14;100989.02;108129;1253;62502;-69
2023/05/13 07:47:53;;;;;;;3.70;1.30;;;;;;;39.68;11.46;100988.17;108171;1254;64906;-68
2023/05/13 07:50:20;;;;;;;5.20;1.40;;;;;;;39.78;11.39;100986.59;108205;1252;60516;-70
2023/05/13 07:52:48;;;;;;;3.20;1.50;;;;;;;39.74;11.22;100991.17;108170;1253;60416;-68
2023/05/13 07:55:16;;;;;;;5.20;1.30;;;;;;;39.98;11.36;100990.43;108164;1253;64941;-70
2023/05/13 07:57:44;;;;;;;7.60;1.60;;;;;;;40.74;11.06;100984.17;108173;1253;61475;-69
2023/05/13 08:00:12;;;;;;;3.70;1.30;;;;;;;41.08;10.76;100982.73;108072;1253;65102;-70
2023/05/13 08:02:41;;;;;;;6.60;1.50;;;;;;;40.95;10.94;100986.27;108078;1253;60459;-69
2023/05/13 08:05:09;;;;;;;5.20;1.30;;;;;;;40.91;10.88;100986.64;108183;1252;60348;-67
2023/05/13 08:07:38;;;;;;;2.20;1.30;;;;;;;41.15;10.62;100983.89;108203;1253;64943;-67
2023/05/13 08:10:05;;;;;;;4.10;1.20;;;;;;;41.86;10.20;100983.55;108189;1253;62663;-67
2023/05/13 08:12:32;;;;;;;3.40;1.40;;;;;;;42.33;10.33;100984.40;108261;1252;64956;-68
2023/05/13 08:15:00;;;;;;;9.60;1.60;;;;;;;42.69;9.77;100980.14;108142;1253;59601;-67
2023/05/13 08:17:28;;;;;;;5.00;1.50;;;;;;;42.68;9.81;100981.30;108182;1253;60268;-67
2023/05/13 08:19:55;;;;;;;7.20;2.40;;;;;;;42.39;10.01;100986.00;108210;1253;65031;-69
2023/05/13 08:22:21;;;;;;;4.30;1.50;;;;;;;42.12;10.24;100983.75;108198;1253;62412;-68
2023/05/13 08:24:48;;;;;;;5.70;1.60;;;;;;;42.16;10.35;100978.91;108151;1253;63855;-69
2023/05/13 08:27:15;;;;;;;13.40;2.10;;;;;;;42.38;10.33;100975.80;108250;1252;60453;-67
2023/05/13 08:29:42;;;;;;;4.50;1.30;;;;;;;42.26;10.05;100977.94;108349;1252;60544;-69
2023/05/13 08:32:09;;;;;;;3.20;1.00;;;;;;;41.65;9.95;100976.17;108282;1256;66352;-68
2023/05/13 08:34:36;;;;;;;3.60;1.40;;;;;;;41.40;10.49;100972.95;108272;1254;62660;-68
2023/05/13 08:37:03;;;;;;;5.10;1.40;;;;;;;41.05;10.66;100972.60;108359;1253;73586;-69
2023/05/13 08:39:30;;;;;;;4.90;1.20;;;;;;;41.22;10.69;100973.30;108211;1253;59591;-67
2023/05/13 08:41:56;;;;;;;3.50;1.30;;;;;;;41.23;10.47;100971.55;108198;1253;59215;-69
2023/05/13 08:44:27;;;;;;;3.30;1.20;;;;;;;41.40;10.29;100973.67;108273;1252;65852;-69
2023/05/13 08:47:12;;;;;;;4.60;1.40;;;;;;;41.34;10.15;100965.91;108305;1252;62447;-69
2023/05/13 08:49:39;;;;;;;2.50;1.30;;;;;;;41.76;10.15;100959.88;108298;1254;64652;-69
2023/05/13 08:52:06;;;;;;;8.70;1.40;;;;;;;42.41;9.96;100957.65;108269;1253;59087;-69
2023/05/13 08:54:32;;;;;;;3.40;1.20;;;;;;;42.51;10.03;100957.73;108260;1254;60444;-68
2023/05/13 08:56:59;;;;;;;4.30;1.20;;;;;;;42.29;9.69;100957.13;108173;1253;67423;-71
2023/05/13 08:59:26;;;;;;;3.90;1.50;;;;;;;42.23;9.95;100954.85;108262;1253;62019;-70
2023/05/13 09:01:53;;;;;;;4.40;1.10;;;;;;;42.04;9.69;100956.36;108228;1253;65249;-69
2023/05/13 09:04:20;;;;;;;1.70;1.20;;;;;;;41.85;9.67;100951.90;108249;1252;60453;-70
2023/05/13 09:06:47;;;;;;;1.70;1.20;;;;;;;41.69;9.80;100949.02;108218;1252;60143;-68
2023/05/13 09:09:14;;;;;;;7.40;1.30;;;;;;;41.74;9.98;100946.15;108363;1254;65963;-69
2023/05/13 09:11:42;;;;;;;5.80;1.10;;;;;;;41.87;9.76;100946.26;108394;1254;62594;-70
2023/05/13 09:14:12;;;;;;;1.50;1.00;;;;;;;42.22;9.36;100945.15;108376;1254;65157;-69
2023/05/13 09:16:39;;;;;;;2.30;1.10;;;;;;;42.24;9.29;100943.37;108288;1253;60312;-68
2023/05/13 09:19:06;;;;;;;4.30;1.70;;;;;;;42.05;9.17;100941.77;108188;1254;59359;-68
2023/05/13 09:21:34;;;;;;;5.30;1.20;;;;;;;42.09;9.41;100938.58;108251;1256;66068;-68
2023/05/13 09:24:08;;;;;;;2.20;1.20;;;;;;;42.46;9.38;100934.11;108219;1254;62732;-68
2023/05/13 09:26:39;;;;;;;10.20;1.50;;;;;;;42.48;9.41;100926.73;108377;1253;65158;-68
2023/05/13 09:29:27;;;;;;;2.80;1.20;;;;;;;42.73;9.42;100920.68;108083;1254;60421;-67
2023/05/13 09:31:56;;;;;;;5.60;1.50;;;;;;;42.27;9.47;100914.09;108162;1252;60366;-69
2023/05/13 09:34:33;;;;;;;2.40;1.10;;;;;;;42.12;9.66;100914.69;108191;1253;65999;-69
2023/05/13 09:37:00;;;;;;;5.70;1.80;;;;;;;42.12;9.69;100912.35;108180;1253;62509;-70
2023/05/13 09:39:27;;;;;;;2.40;1.20;;;;;;;42.05;9.85;100905.25;108286;1253;65167;-70
2023/05/13 09:41:55;;;;;;;7.50;1.80;;;;;;;42.38;9.96;100899.83;108174;1253;60645;-69
2023/05/13 09:44:22;;;;;;;3.40;1.60;;;;;;;42.39;9.81;100898.42;108187;1254;59797;-70
2023/05/13 09:46:52;;;;;;;4.20;1.30;;;;;;;42.57;9.79;100895.92;108144;1254;65082;-67
2023/05/13 09:49:23;;;;;;;3.20;1.50;;;;;;;42.75;9.53;100890.19;108042;1252;62541;-68
2023/05/13 09:51:50;;;;;;;5.10;1.10;;;;;;;42.60;9.30;100891.21;108188;1252;63858;-67
2023/05/13 09:54:16;;;;;;;3.50;1.30;;;;;;;42.14;9.59;100891.26;108213;1253;59177;-68
2023/05/13 09:56:43;;;;;;;3.00;1.00;;;;;;;42.04;9.43;100888.85;108227;1253;60456;-68
2023/05/13 09:59:10;;;;;;;3.20;0.90;;;;;;;42.55;9.20;100882.77;108176;1253;59146;-67
2023/05/13 10:01:37;;;;;;;4.90;1.30;;;;;;;42.73;9.23;100875.48;108181;1254;62794;-68
2023/05/13 10:04:05;;;;;;;5.40;1.40;;;;;;;43.05;9.18;100871.22;108096;1253;65254;-67
2023/05/13 10:06:32;;;;;;;6.00;1.40;;;;;;;43.24;9.00;100866.91;108134;1253;60390;-68
2023/05/13 10:09:02;;;;;;;4.30;1.10;;;;;;;43.09;9.16;100869.95;108165;1253;60334;-69
2023/05/13 10:11:29;;;;;;;3.00;1.10;;;;;;;42.99;8.91;100875.28;108163;1253;65249;-67
2023/05/13 10:14:02;;;;;;;4.80;1.10;;;;;;;42.86;8.68;100871.75;108157;1253;62663;-69
2023/05/13 10:16:29;;;;;;;5.40;1.40;;;;;;;42.39;9.12;100877.21;108260;1253;65070;-69
2023/05/13 10:18:57;;;;;;;2.20;1.00;;;;;;;42.12;9.08;100874.73;108360;1253;60054;-71
2023/05/13 10:21:25;;;;;;;4.60;1.20;;;;;;;41.66;9.27;100876.17;108201;1252;60273;-71
2023/05/13 10:23:52;;;;;;;4.80;1.40;;;;;;;41.06;9.37;100873.52;108324;1253;74378;-71
2023/05/13 10:26:20;;;;;;;1.60;1.30;;;;;;;40.71;9.63;100866.04;108337;1254;62406;-71
2023/05/13 10:28:47;;;;;;;2.70;1.10;;;;;;;40.87;9.62;100860.08;108368;1252;65272;-68
2023/05/13 10:31:17;;;;;;;3.40;1.40;;;;;;;41.03;9.62;100857.42;108435;1252;60443;-69
2023/05/13 10:33:45;;;;;;;4.90;1.40;;;;;;;41.28;9.55;100856.63;108249;1254;60466;-69
2023/05/13 10:36:24;;;;;;;2.10;1.40;;;;;;;41.46;9.09;100851.65;108304;1254;66023;-70
2023/05/13 10:39:03;;;;;;;4.40;0.90;;;;;;;41.73;9.03;100843.70;108306;1253;62403;-68
2023/05/13 10:41:52;;;;;;;2.70;1.40;;;;;;;41.50;9.21;100844.38;108403;1253;65023;-69
2023/05/13 10:44:18;;;;;;;3.50;1.50;;;;;;;40.95;9.50;100850.11;108246;1254;60327;-69
2023/05/13 10:46:48;;;;;;;5.60;1.10;;;;;;;41.00;9.66;100847.84;108204;1252;60779;-69
2023/05/13 10:49:15;;;;;;;2.30;1.30;;;;;;;41.05;9.51;100841.92;108377;1253;65975;-69
2023/05/13 10:51:48;;;;;;;2.70;1.50;;;;;;;41.64;9.23;100841.11;108267;1254;61753;-68
2023/05/13 10:54:23;;;;;;;2.50;1.10;;;;;;;41.59;9.23;100845.11;108230;1254;65176;-69
2023/05/13 10:56:56;;;;;;;5.10;1.20;;;;;;;41.30;9.29;100843.48;108245;1254;60459;-68
2023/05/13 10:59:23;;;;;;;3.50;1.10;;;;;;;40.70;9.44;100839.21;108243;1253;60333;-68
2023/05/13 11:01:50;;;;;;;3.40;1.00;;;;;;;40.50;9.77;100842.20;108187;1252;65127;-69
2023/05/13 11:04:18;;;;;;;5.10;1.20;;;;;;;40.29;9.95;100840.48;108195;1253;61490;-67
2023/05/13 11:06:47;;;;;;;2.80;1.20;;;;;;;40.44;9.52;100841.09;108334;1254;64817;-67
2023/05/13 11:09:28;;;;;;;4.40;1.60;;;;;;;40.68;9.64;100839.77;108308;1253;60315;-67
2023/05/13 11:11:56;;;;;;;12.60;2.80;;;;;;;41.05;9.32;100839.94;108408;1253;60327;-68
2023/05/13 11:14:24;;;;;;;4.80;2.50;;;;;;;41.28;9.00;100836.83;108188;1254;65176;-69
2023/05/13 11:17:00;;;;;;;4.30;1.30;;;;;;;41.13;9.07;100835.44;108369;1253;62471;-67
2023/05/13 11:19:29;;;;;;;3.40;1.30;;;;;;;40.44;9.35;100828.52;108258;1254;65028;-67
2023/05/13 11:22:17;;;;;;;3.50;1.20;;;;;;;40.64;9.41;100830.63;108299;1253;60325;-69
2023/05/13 11:24:44;;;;;;;2.50;1.20;;;;;;;40.60;9.52;100827.16;108402;1252;60729;-69